アダック島 の空港の天気 - METARとTAF

アダック空港 ( PADK / ADK ) - アメリカ アラスカ州アダック島
飛行場実況気象(Metar)
観測時間07/17 01:30 AKDT (07/17 09:30 UTC)
風向・風速西南西 6m/s
視程10km以上
天気現象
全天を覆う雲 雲底高度 90m
気温8℃
湿度93%
気圧1015hPa
METARPADK 170930Z AUTO 25012KT 7SM OVC003 08/07 A2998 RMK AO2
過去の天気等 Google飛行場航空写真 Wunderground天気予報

過去48時間のMETAR

飛行場予報(TAF)
データがありません